Time;durP1;ratioP1;P1;durP2;ratioP2;P2;SDS_P1;SDS_P2;PMS_P1;PMS_P2;Temp;Humidity;BMP_temperature;BMP_pressure;BME280_temperature;BME280_humidity;BME280_pressure;Samples;Min_cycle;Max_cycle;Signal;HPM_P1;HPM_P2
2021/04/22 00:00:19;;;;;;;3.90;1.67;;;9.00;59.10;;;;;;5108891;28;20239;-68
2021/04/22 00:02:46;;;;;;;2.03;1.33;;;9.00;59.20;;;;;;5111375;28;20198;-68
2021/04/22 00:05:22;;;;;;;2.33;0.87;;;9.00;59.40;;;;;;5112108;27;20199;-68
2021/04/22 00:07:50;;;;;;;4.17;1.17;;;8.90;59.50;;;;;;5111770;27;20256;-68
2021/04/22 00:10:18;;;;;;;1.63;0.90;;;8.90;59.60;;;;;;5113027;27;20195;-68
2021/04/22 00:12:45;;;;;;;2.50;1.30;;;8.90;59.70;;;;;;5108521;27;20548;-68
2021/04/22 00:15:14;;;;;;;1.57;1.00;;;8.90;59.90;;;;;;5108896;28;20264;-68
2021/04/22 00:17:41;;;;;;;3.60;1.80;;;8.90;60.10;;;;;;5111446;27;20190;-68
2021/04/22 00:20:09;;;;;;;1.03;0.90;;;8.90;60.20;;;;;;5110346;27;20202;-68
2021/04/22 00:22:35;;;;;;;4.60;1.40;;;8.80;60.30;;;;;;5109699;27;20294;-68
2021/04/22 00:25:04;;;;;;;3.10;1.20;;;8.80;60.60;;;;;;5111370;27;20225;-68
2021/04/22 00:27:31;;;;;;;1.47;0.97;;;8.80;60.80;;;;;;5109479;27;20625;-68
2021/04/22 00:29:57;;;;;;;3.27;1.00;;;8.70;60.80;;;;;;5109879;27;20198;-68
2021/04/22 00:32:23;;;;;;;4.67;1.40;;;8.70;61.10;;;;;;5110772;27;20622;-68
2021/04/22 00:34:50;;;;;;;4.53;1.10;;;8.70;61.50;;;;;;5112717;27;20308;-68
2021/04/22 00:37:16;;;;;;;1.47;0.90;;;8.60;61.70;;;;;;5111042;27;20709;-68
2021/04/22 00:39:43;;;;;;;3.23;1.30;;;8.60;62.00;;;;;;5105970;27;20201;-68
2021/04/22 00:42:10;;;;;;;3.33;1.07;;;8.50;62.80;;;;;;5111362;27;20200;-68
2021/04/22 00:44:38;;;;;;;1.47;0.70;;;8.60;62.50;;;;;;5110225;28;20650;-68
2021/04/22 00:47:04;;;;;;;6.13;1.20;;;8.60;62.60;;;;;;5109819;27;20221;-68
2021/04/22 00:49:31;;;;;;;4.00;1.20;;;8.50;62.80;;;;;;5111067;27;20664;-68
2021/04/22 00:51:57;;;;;;;2.27;1.37;;;8.50;63.30;;;;;;5108867;27;20207;-68
2021/04/22 00:54:24;;;;;;;3.93;1.30;;;8.50;63.60;;;;;;5110170;27;20348;-68
2021/04/22 00:56:51;;;;;;;8.20;1.40;;;8.40;63.80;;;;;;5109752;27;20713;-68
2021/04/22 00:59:18;;;;;;;4.00;0.90;;;8.40;63.80;;;;;;5107091;27;20316;-68
2021/04/22 01:01:45;;;;;;;3.20;1.00;;;8.40;64.00;;;;;;5108583;27;20199;-68
2021/04/22 01:04:12;;;;;;;2.33;1.30;;;8.40;64.40;;;;;;5109516;27;20191;-68
2021/04/22 01:06:38;;;;;;;5.83;1.10;;;8.30;64.50;;;;;;5110321;27;20231;-68
2021/04/22 01:09:07;;;;;;;5.27;1.10;;;8.30;64.90;;;;;;5110412;27;20713;-69
2021/04/22 01:11:33;;;;;;;2.33;0.87;;;8.30;65.30;;;;;;5109836;27;20210;-68
2021/04/22 01:14:00;;;;;;;1.07;0.80;;;8.20;65.30;;;;;;5109503;27;20212;-69
2021/04/22 01:16:27;;;;;;;3.30;0.93;;;8.30;65.50;;;;;;5108056;27;20556;-68
2021/04/22 01:18:53;;;;;;;3.30;0.83;;;8.30;65.70;;;;;;5110477;27;20345;-68
2021/04/22 01:21:24;;;;;;;5.77;0.83;;;8.30;65.80;;;;;;5109002;27;20193;-68
2021/04/22 01:23:52;;;;;;;5.13;1.20;;;8.20;66.00;;;;;;5108895;27;20899;-68
2021/04/22 01:26:19;;;;;;;6.47;1.37;;;8.60;67.40;;;;;;5110284;27;20233;-68
2021/04/22 01:28:46;;;;;;;6.27;1.20;;;8.20;66.80;;;;;;5109850;28;20195;-68
2021/04/22 01:31:13;;;;;;;4.07;1.20;;;8.10;66.90;;;;;;5108927;27;20564;-67
2021/04/22 01:33:40;;;;;;;4.23;1.00;;;8.10;67.40;;;;;;5110062;27;20233;-67
2021/04/22 01:36:07;;;;;;;3.83;1.20;;;8.10;68.30;;;;;;5114301;27;20268;-67
2021/04/22 01:38:36;;;;;;;3.83;1.30;;;8.10;68.10;;;;;;5110140;27;20603;-67
2021/04/22 01:41:03;;;;;;;9.80;1.50;;;8.00;68.60;;;;;;5101291;28;20192;-67
2021/04/22 01:43:30;;;;;;;7.20;1.10;;;8.00;69.40;;;;;;5109542;28;20224;-67
2021/04/22 01:45:57;;;;;;;3.97;1.30;;;7.90;69.60;;;;;;5107979;28;20215;-68
2021/04/22 01:48:24;;;;;;;3.23;0.90;;;7.90;69.80;;;;;;5109648;27;20834;-68
2021/04/22 01:50:51;;;;;;;3.87;1.10;;;7.90;70.00;;;;;;5108247;27;20747;-67
2021/04/22 01:53:17;;;;;;;4.87;1.10;;;8.20;70.60;;;;;;5108532;27;20198;-67
2021/04/22 01:55:47;;;;;;;4.23;1.00;;;7.90;70.80;;;;;;5108053;27;20200;-67
2021/04/22 01:58:16;;;;;;;4.87;1.20;;;7.90;71.00;;;;;;5109897;27;20196;-67
2021/04/22 02:00:44;;;;;;;5.97;1.60;;;7.80;71.20;;;;;;5107663;27;20192;-67
2021/04/22 02:03:12;;;;;;;5.13;1.73;;;7.80;72.00;;;;;;5102249;27;20199;-68
2021/04/22 02:05:40;;;;;;;2.83;1.00;;;7.80;72.60;;;;;;5107734;27;20227;-67
2021/04/22 02:08:08;;;;;;;6.10;1.13;;;7.70;73.50;;;;;;5120799;27;20198;-67
2021/04/22 02:10:35;;;;;;;3.83;1.40;;;7.70;73.80;;;;;;5110661;27;20227;-68
2021/04/22 02:13:03;;;;;;;4.40;1.00;;;7.70;74.00;;;;;;5108600;27;20622;-68
2021/04/22 02:15:31;;;;;;;4.17;1.27;;;7.70;74.60;;;;;;5107607;27;20647;-68
2021/04/22 02:17:58;;;;;;;6.23;1.10;;;7.70;74.70;;;;;;5108637;27;20196;-68
2021/04/22 02:20:24;;;;;;;5.23;1.83;;;7.60;75.20;;;;;;5108532;28;20686;-67
2021/04/22 02:22:51;;;;;;;4.83;1.27;;;7.60;75.50;;;;;;5109832;28;20235;-67
2021/04/22 02:25:21;;;;;;;4.07;1.20;;;7.60;76.90;;;;;;5107115;27;20889;-67
2021/04/22 02:27:48;;;;;;;7.33;1.30;;;7.60;76.90;;;;;;5112106;27;20209;-67
2021/04/22 02:30:18;;;;;;;11.80;1.47;;;7.60;77.70;;;;;;5107315;28;20188;-67
2021/04/22 02:32:45;;;;;;;5.90;1.33;;;7.50;78.80;;;;;;5114887;27;20219;-67
2021/04/22 02:35:14;;;;;;;4.23;1.37;;;7.50;79.20;;;;;;5112237;27;20632;-67
2021/04/22 02:37:41;;;;;;;7.97;1.63;;;7.40;79.40;;;;;;5110283;28;20192;-67
2021/04/22 02:40:09;;;;;;;8.77;1.67;;;7.40;80.20;;;;;;5106169;28;20196;-67
2021/04/22 02:42:35;;;;;;;5.97;1.20;;;7.40;80.40;;;;;;5108667;28;20199;-67
2021/04/22 02:45:03;;;;;;;7.60;1.30;;;7.30;80.80;;;;;;5108666;27;20196;-67
2021/04/22 02:47:31;;;;;;;11.23;1.53;;;7.30;81.10;;;;;;5114648;27;20205;-68
2021/04/22 02:49:57;;;;;;;6.70;1.60;;;7.40;81.60;;;;;;5106433;28;20723;-66
2021/04/22 02:52:24;;;;;;;5.30;1.47;;;7.30;81.90;;;;;;5119635;27;20207;-68
2021/04/22 02:54:50;;;;;;;3.77;1.30;;;7.30;82.60;;;;;;5115264;27;20303;-68
2021/04/22 02:57:17;;;;;;;3.67;1.50;;;7.30;82.90;;;;;;5119755;27;20289;-68
2021/04/22 02:59:43;;;;;;;1.70;1.10;;;7.30;83.70;;;;;;5111888;27;21495;-69
2021/04/22 03:02:10;;;;;;;3.90;1.20;;;7.20;83.70;;;;;;5106775;28;20669;-69
2021/04/22 03:04:37;;;;;;;4.73;1.60;;;7.20;84.30;;;;;;5110405;28;20681;-69
2021/04/22 03:07:04;;;;;;;5.80;1.83;;;7.30;84.50;;;;;;5108635;28;20664;-68
2021/04/22 03:09:30;;;;;;;3.97;1.10;;;7.20;85.00;;;;;;5108749;28;20815;-69
2021/04/22 03:11:57;;;;;;;10.67;1.73;;;7.20;85.20;;;;;;5115249;27;20222;-68
2021/04/22 03:14:23;;;;;;;6.77;1.47;;;7.20;86.00;;;;;;5112502;27;20516;-68
2021/04/22 03:16:50;;;;;;;5.83;1.50;;;7.20;86.30;;;;;;5109380;28;20203;-68
2021/04/22 03:19:16;;;;;;;11.53;1.50;;;7.20;86.50;;;;;;5112816;27;20269;-68
2021/04/22 03:21:44;;;;;;;4.70;1.40;;;7.20;87.10;;;;;;5113409;28;20369;-68
2021/04/22 03:24:11;;;;;;;10.07;1.50;;;7.20;87.50;;;;;;5112217;28;20211;-67
2021/04/22 03:26:37;;;;;;;8.80;1.50;;;7.10;87.90;;;;;;5110844;27;20575;-68
2021/04/22 03:29:05;;;;;;;1.90;1.10;;;7.10;88.10;;;;;;5110318;27;20252;-68
2021/04/22 03:31:31;;;;;;;8.23;1.33;;;7.10;88.50;;;;;;5111077;27;20932;-68
2021/04/22 03:33:58;;;;;;;12.53;2.00;;;7.10;88.90;;;;;;5111377;28;20207;-68
2021/04/22 03:36:24;;;;;;;8.50;1.60;;;7.10;90.00;;;;;;5115650;27;20299;-68
2021/04/22 03:38:54;;;;;;;6.43;1.60;;;7.10;90.20;;;;;;5106664;27;20191;-68
2021/04/22 03:41:22;;;;;;;4.03;1.50;;;7.00;90.30;;;;;;5109901;28;20211;-68
2021/04/22 03:43:49;;;;;;;9.93;1.70;;;8.00;91.00;;;;;;5110485;27;20199;-66
2021/04/22 03:46:15;;;;;;;6.37;1.50;;;7.00;91.00;;;;;;5110970;27;20354;-68
2021/04/22 03:48:42;;;;;;;3.90;1.27;;;7.00;91.10;;;;;;5111831;27;20757;-68
2021/04/22 03:51:09;;;;;;;5.73;1.50;;;7.10;91.30;;;;;;5111143;27;20200;-68
2021/04/22 03:53:35;;;;;;;4.87;1.63;;;7.10;91.40;;;;;;5111781;27;20263;-68
2021/04/22 03:56:03;;;;;;;7.50;1.37;;;7.10;91.60;;;;;;5110202;27;20299;-68
2021/04/22 03:58:29;;;;;;;5.40;1.30;;;7.10;91.80;;;;;;5109569;27;20223;-69
2021/04/22 04:00:56;;;;;;;3.10;1.17;;;7.10;92.20;;;;;;5101225;27;20219;-68
2021/04/22 04:03:23;;;;;;;5.73;1.10;;;7.10;92.20;;;;;;5112533;27;20196;-67
2021/04/22 04:05:49;;;;;;;2.07;1.07;;;7.10;92.30;;;;;;5111044;28;20557;-68
2021/04/22 04:08:16;;;;;;;5.50;1.30;;;7.20;92.60;;;;;;5110190;28;20200;-68
2021/04/22 04:10:43;;;;;;;7.77;1.20;;;7.20;92.80;;;;;;5110792;28;20191;-66
2021/04/22 04:13:11;;;;;;;4.27;1.00;;;7.20;93.20;;;;;;5108282;28;20302;-66
2021/04/22 04:15:37;;;;;;;7.00;2.83;;;7.20;93.20;;;;;;5105431;27;20224;-66
2021/04/22 04:18:05;;;;;;;6.53;2.00;;;7.30;93.70;;;;;;5109578;27;20199;-66
2021/04/22 04:20:32;;;;;;;4.67;1.87;;;7.20;94.10;;;;;;5110107;28;20200;-66
2021/04/22 04:22:58;;;;;;;4.83;1.40;;;7.30;94.40;;;;;;5109720;28;20638;-67
2021/04/22 04:25:25;;;;;;;5.77;1.83;;;7.30;94.60;;;;;;5108408;28;20231;-67
2021/04/22 04:27:51;;;;;;;5.47;1.30;;;7.30;95.50;;;;;;5117510;27;20191;-67
2021/04/22 04:30:19;;;;;;;6.67;1.80;;;7.30;95.70;;;;;;5116427;27;20196;-67
2021/04/22 04:32:47;;;;;;;2.87;1.50;;;7.30;95.90;;;;;;5128515;27;20585;-67
2021/04/22 04:35:14;;;;;;;6.67;1.57;;;7.40;96.30;;;;;;5131101;27;20310;-67
2021/04/22 04:37:41;;;;;;;4.37;1.43;;;7.50;96.00;;;;;;5113418;27;20621;-68
2021/04/22 04:40:11;;;;;;;1.90;1.00;;;7.50;96.00;;;;;;5110841;28;20240;-67
2021/04/22 04:42:39;;;;;;;5.17;1.20;;;7.60;96.10;;;;;;5113492;27;20196;-67
2021/04/22 04:45:08;;;;;;;3.13;1.30;;;7.70;96.00;;;;;;5113873;27;20203;-67
2021/04/22 04:47:35;;;;;;;3.50;1.27;;;7.70;96.10;;;;;;5115779;27;20195;-68
2021/04/22 04:50:02;;;;;;;5.17;1.50;;;7.90;95.90;;;;;;5115316;27;20296;-68
2021/04/22 04:52:29;;;;;;;5.87;1.50;;;8.00;95.90;;;;;;5118310;27;20434;-68
2021/04/22 04:54:55;;;;;;;2.97;1.40;;;8.10;95.80;;;;;;5116694;27;20211;-69
2021/04/22 04:57:24;;;;;;;4.03;1.40;;;8.20;95.80;;;;;;5119226;27;20302;-68
2021/04/22 04:59:51;;;;;;;2.37;1.10;;;8.20;95.60;;;;;;5114303;27;20671;-68
2021/04/22 05:02:18;;;;;;;8.80;1.63;;;8.30;95.40;;;;;;5104733;27;20619;-68
2021/04/22 05:04:45;;;;;;;4.37;1.57;;;8.40;95.30;;;;;;5109411;27;20767;-68
2021/04/22 05:07:12;;;;;;;7.57;2.00;;;8.50;95.20;;;;;;5109473;27;20201;-68
2021/04/22 05:09:38;;;;;;;5.00;1.30;;;8.60;94.90;;;;;;5106515;27;20207;-68
2021/04/22 05:12:06;;;;;;;3.30;1.60;;;8.60;94.70;;;;;;5107849;27;20284;-68
2021/04/22 05:14:33;;;;;;;4.43;1.60;;;8.70;94.50;;;;;;5107775;27;20277;-68
2021/04/22 05:16:59;;;;;;;7.70;1.60;;;8.90;94.40;;;;;;5108927;27;20291;-68
2021/04/22 05:19:26;;;;;;;3.67;1.40;;;8.90;94.10;;;;;;5110405;27;20263;-69
2021/04/22 05:21:53;;;;;;;9.30;2.20;;;9.00;94.00;;;;;;5109626;28;20237;-67
2021/04/22 05:24:20;;;;;;;7.77;1.90;;;9.00;94.00;;;;;;5113256;27;20284;-68
2021/04/22 05:26:47;;;;;;;5.50;1.30;;;9.20;93.80;;;;;;5109493;27;20301;-68
2021/04/22 05:29:13;;;;;;;4.93;2.20;;;9.20;93.40;;;;;;5109940;27;20366;-68
2021/04/22 05:31:39;;;;;;;6.80;1.73;;;9.40;93.20;;;;;;5113274;27;20239;-67
2021/04/22 05:34:06;;;;;;;5.10;1.70;;;9.50;93.10;;;;;;5108943;28;20254;-67
2021/04/22 05:36:32;;;;;;;5.00;1.70;;;9.60;93.20;;;;;;5110947;27;20296;-67
2021/04/22 05:39:01;;;;;;;7.93;1.80;;;9.90;92.40;;;;;;5105997;27;20340;-67
2021/04/22 05:41:27;;;;;;;4.80;2.00;;;10.00;91.10;;;;;;5108595;28;20206;-67
2021/04/22 05:43:54;;;;;;;8.03;1.93;;;10.00;90.50;;;;;;5109803;27;20213;-67
2021/04/22 05:46:20;;;;;;;9.53;2.07;;;10.10;90.20;;;;;;5109049;27;20290;-68
2021/04/22 05:48:47;;;;;;;6.80;2.17;;;10.00;90.00;;;;;;5109550;27;20287;-67
2021/04/22 05:51:13;;;;;;;8.33;2.00;;;10.00;90.40;;;;;;5109819;27;20279;-67
2021/04/22 05:53:40;;;;;;;4.97;1.50;;;10.00;90.10;;;;;;5108291;27;20282;-67
2021/04/22 05:56:07;;;;;;;3.33;1.33;;;9.90;90.60;;;;;;5109770;27;20625;-68
2021/04/22 05:58:33;;;;;;;4.27;1.67;;;10.00;90.10;;;;;;5109373;27;20215;-68
2021/04/22 06:01:00;;;;;;;10.57;2.13;;;10.00;90.50;;;;;;5096196;28;20296;-68
2021/04/22 06:03:26;;;;;;;9.23;2.47;;;10.20;90.10;;;;;;5107799;27;20290;-68
2021/04/22 06:05:53;;;;;;;6.80;2.27;;;10.50;88.40;;;;;;5110088;28;20293;-68
2021/04/22 06:08:20;;;;;;;5.60;1.70;;;10.60;87.50;;;;;;5103231;28;20275;-68
2021/04/22 06:10:46;;;;;;;4.63;1.67;;;10.70;86.40;;;;;;5094308;28;20290;-68
2021/04/22 06:13:13;;;;;;;8.07;2.23;;;10.70;86.00;;;;;;5101301;27;20188;-67
2021/04/22 06:15:40;;;;;;;6.40;1.77;;;10.60;85.70;;;;;;5105636;27;20314;-68
2021/04/22 06:18:08;;;;;;;4.27;1.60;;;10.60;85.60;;;;;;5107712;27;20249;-67
2021/04/22 06:20:34;;;;;;;5.70;1.70;;;10.50;85.40;;;;;;5107176;27;20189;-67
2021/04/22 06:23:01;;;;;;;4.60;1.60;;;10.50;84.70;;;;;;5106930;27;20207;-67
2021/04/22 06:25:28;;;;;;;3.30;1.30;;;10.50;84.60;;;;;;5107018;28;20228;-68
2021/04/22 06:27:56;;;;;;;6.73;1.60;;;10.50;84.40;;;;;;5105356;27;20188;-67
2021/04/22 06:30:25;;;;;;;2.47;1.40;;;10.50;84.20;;;;;;5105853;27;20220;-67
2021/04/22 06:32:52;;;;;;;3.97;1.63;;;10.50;83.90;;;;;;5106212;27;20212;-67
2021/04/22 06:35:18;;;;;;;10.43;2.10;;;10.50;83.60;;;;;;5106367;27;20223;-67
2021/04/22 06:37:45;;;;;;;1.47;1.03;;;10.50;83.10;;;;;;5106333;28;20613;-68
2021/04/22 06:40:15;;;;;;;11.00;2.20;;;10.50;82.70;;;;;;5106160;27;20740;-67
2021/04/22 06:42:42;;;;;;;18.77;2.53;;;10.50;82.00;;;;;;5106706;27;20315;-67
2021/04/22 06:45:11;;;;;;;7.13;2.00;;;10.50;81.90;;;;;;5104970;28;20306;-67
2021/04/22 06:47:40;;;;;;;7.80;1.70;;;10.50;81.60;;;;;;5122238;27;20245;-68
2021/04/22 06:50:09;;;;;;;7.00;1.30;;;10.40;81.60;;;;;;5104434;27;20199;-67
2021/04/22 06:52:36;;;;;;;8.60;1.63;;;10.50;81.70;;;;;;5107314;28;20280;-67
2021/04/22 06:55:04;;;;;;;5.00;1.50;;;10.40;81.50;;;;;;5103816;28;20643;-67
2021/04/22 06:57:30;;;;;;;6.80;1.60;;;10.40;81.60;;;;;;5108214;28;20761;-67
2021/04/22 06:59:57;;;;;;;8.90;1.80;;;10.50;81.50;;;;;;5104565;27;20188;-67
2021/04/22 07:02:23;;;;;;;6.43;1.60;;;10.60;81.00;;;;;;5106718;28;20652;-67
2021/04/22 07:04:53;;;;;;;2.60;1.60;;;10.60;81.30;;;;;;5106700;28;20226;-67
2021/04/22 07:07:20;;;;;;;4.97;1.70;;;10.70;80.20;;;;;;5106209;28;20200;-67
2021/04/22 07:09:46;;;;;;;3.70;1.40;;;10.90;79.50;;;;;;5105251;28;20196;-67
2021/04/22 07:12:13;;;;;;;5.13;1.33;;;11.00;78.70;;;;;;5108115;28;20556;-67
2021/04/22 07:14:39;;;;;;;7.83;1.57;;;11.20;78.10;;;;;;5104466;28;20289;-67
2021/04/22 07:17:06;;;;;;;5.20;1.83;;;11.50;76.00;;;;;;5106456;28;20664;-67
2021/04/22 07:19:32;;;;;;;2.07;1.27;;;12.00;74.50;;;;;;5106808;28;20658;-68
2021/04/22 07:21:59;;;;;;;6.47;1.63;;;12.70;72.40;;;;;;5106402;28;20559;-67
2021/04/22 07:24:26;;;;;;;5.10;1.80;;;12.90;69.80;;;;;;5104401;28;20627;-68
2021/04/22 07:26:53;;;;;;;4.57;1.57;;;12.90;68.40;;;;;;5106943;28;20192;-67
2021/04/22 07:29:19;;;;;;;3.97;1.20;;;12.70;67.90;;;;;;5105478;28;20257;-67
2021/04/22 07:31:47;;;;;;;4.80;1.63;;;12.70;67.90;;;;;;5104451;28;20231;-69
2021/04/22 07:34:14;;;;;;;4.28;1.45;;;12.70;67.80;;;;;;5105374;28;20442;-67
2021/04/22 07:36:40;;;;;;;6.27;1.80;;;12.60;68.10;;;;;;5102250;28;20219;-67
2021/04/22 07:39:08;;;;;;;3.77;1.60;;;12.90;68.00;;;;;;5104800;28;20198;-67
2021/04/22 07:41:35;;;;;;;7.13;1.73;;;14.90;65.40;;;;;;5104310;28;20207;-67
2021/04/22 07:44:01;;;;;;;2.83;1.30;;;17.30;58.80;;;;;;5119019;27;20664;-67
2021/04/22 07:46:28;;;;;;;11.70;1.67;;;18.80;54.70;;;;;;5103730;28;20320;-68
2021/04/22 07:48:54;;;;;;;14.53;1.97;;;19.20;49.70;;;;;;5105919;28;20259;-67
2021/04/22 07:51:21;;;;;;;6.87;1.43;;;18.30;48.90;;;;;;5104111;28;20202;-67
2021/04/22 07:53:47;;;;;;;5.00;1.23;;;17.90;49.20;;;;;;5106530;28;20207;-68
2021/04/22 07:56:15;;;;;;;6.43;1.90;;;17.50;49.70;;;;;;5103722;28;20293;-67
2021/04/22 07:58:41;;;;;;;5.90;1.67;;;17.80;50.00;;;;;;5108999;27;20191;-67
2021/04/22 08:01:08;;;;;;;7.87;1.87;;;19.30;49.20;;;;;;5104404;28;21097;-67
2021/04/22 08:03:35;;;;;;;3.93;1.63;;;20.50;47.30;;;;;;5109237;27;20215;-67
2021/04/22 08:06:02;;;;;;;3.00;1.43;;;21.20;45.60;;;;;;5109900;27;20659;-67
2021/04/22 08:08:28;;;;;;;7.03;1.67;;;21.80;44.50;;;;;;5108969;27;20475;-68
2021/04/22 08:10:56;;;;;;;6.60;1.57;;;22.70;43.50;;;;;;5108975;27;20196;-67
2021/04/22 08:13:26;;;;;;;13.65;1.48;;;22.80;41.60;;;;;;5108335;27;20250;-67
2021/04/22 08:15:55;;;;;;;8.27;1.48;;;21.70;40.90;;;;;;5105872;27;20742;-67
2021/04/22 08:18:24;;;;;;;6.30;1.43;;;20.50;41.30;;;;;;5109232;27;20311;-67
2021/04/22 08:20:52;;;;;;;6.17;1.40;;;19.30;42.70;;;;;;5107903;27;20199;-67
2021/04/22 08:23:19;;;;;;;2.53;1.30;;;18.30;43.90;;;;;;5108065;27;20233;-68
2021/04/22 08:25:49;;;;;;;3.20;1.37;;;17.60;45.20;;;;;;5105730;27;20227;-66
2021/04/22 08:28:19;;;;;;;4.33;1.47;;;16.90;46.00;;;;;;5108259;27;20208;-67
2021/04/22 08:30:49;;;;;;;5.27;1.40;;;16.40;46.70;;;;;;5110561;27;20191;-67
2021/04/22 08:33:17;;;;;;;5.20;1.80;;;15.90;47.50;;;;;;5109325;27;20415;-68
2021/04/22 08:35:44;;;;;;;3.70;1.37;;;15.40;48.50;;;;;;5109105;27;20221;-67
2021/04/22 08:38:11;;;;;;;1.67;0.97;;;14.90;50.10;;;;;;5109029;27;20639;-67
2021/04/22 08:40:37;;;;;;;3.60;1.10;;;14.50;51.20;;;;;;5100784;27;20200;-67
2021/04/22 08:43:05;;;;;;;4.97;1.10;;;14.60;52.00;;;;;;5107430;27;20285;-67
2021/04/22 08:45:31;;;;;;;9.13;1.60;;;15.90;52.70;;;;;;5109539;27;20203;-67
2021/04/22 08:48:00;;;;;;;3.23;1.07;;;16.60;51.10;;;;;;5109599;27;20604;-67
2021/04/22 08:50:30;;;;;;;4.30;1.53;;;16.50;50.70;;;;;;5108836;27;20550;-66
2021/04/22 08:53:00;;;;;;;2.03;1.17;;;15.90;50.80;;;;;;5108260;27;20565;-67
2021/04/22 08:55:30;;;;;;;2.50;1.10;;;15.30;51.30;;;;;;5106546;27;20223;-67
2021/04/22 08:57:58;;;;;;;3.93;1.10;;;15.30;52.20;;;;;;5105498;27;20231;-67
2021/04/22 09:00:28;;;;;;;2.17;1.13;;;16.20;51.80;;;;;;5109503;27;20183;-67
2021/04/22 09:02:54;;;;;;;0.90;0.60;;;16.20;50.70;;;;;;5107685;27;20569;-66
2021/04/22 09:05:23;;;;;;;2.00;1.20;;;15.70;51.10;;;;;;5107357;27;20198;-67
2021/04/22 09:07:49;;;;;;;4.30;1.30;;;15.40;51.90;;;;;;5107419;28;20259;-67
2021/04/22 09:10:18;;;;;;;2.73;1.10;;;15.50;52.30;;;;;;5106915;27;20202;-66
2021/04/22 09:12:56;;;;;;;4.20;1.00;;;15.30;52.30;;;;;;5108961;27;20199;-67
2021/04/22 09:15:25;;;;;;;1.67;0.97;;;14.90;52.80;;;;;;5107147;27;20313;-66
2021/04/22 09:18:00;;;;;;;2.30;1.03;;;14.40;53.30;;;;;;5110618;27;20193;-66
2021/04/22 09:20:32;;;;;;;8.77;2.03;;;13.80;54.80;;;;;;5109913;27;20286;-66
2021/04/22 09:22:59;;;;;;;24.80;4.97;;;13.30;56.00;;;;;;5102730;28;20576;-67
2021/04/22 09:25:27;;;;;;;17.53;3.30;;;14.50;57.90;;;;;;5106881;27;20232;-68
2021/04/22 09:28:04;;;;;;;33.63;5.20;;;17.60;55.40;;;;;;5109243;27;20286;-67
2021/04/22 09:30:36;;;;;;;2.30;1.20;;;20.90;51.40;;;;;;5109104;27;20208;-68
2021/04/22 09:33:03;;;;;;;1.20;0.80;;;22.10;48.50;;;;;;5107994;27;20200;-67
2021/04/22 09:35:32;;;;;;;2.43;1.30;;;21.60;47.00;;;;;;5105341;27;20698;-67
2021/04/22 09:37:59;;;;;;;2.43;1.00;;;20.70;46.80;;;;;;5106465;27;20271;-67
2021/04/22 09:40:30;;;;;;;2.78;1.00;;;19.90;47.40;;;;;;5106217;27;20545;-67
2021/04/22 09:42:59;;;;;;;2.87;1.00;;;18.90;47.70;;;;;;5106001;28;20205;-67
2021/04/22 09:45:28;;;;;;;1.73;0.93;;;18.00;48.10;;;;;;5107777;27;20196;-67
2021/04/22 09:47:55;;;;;;;2.30;0.90;;;17.30;48.60;;;;;;5106378;27;20426;-67
2021/04/22 09:50:25;;;;;;;1.70;0.90;;;16.50;49.60;;;;;;5107104;27;20215;-67
2021/04/22 09:52:59;;;;;;;0.90;0.67;;;15.80;50.60;;;;;;5108024;28;20199;-67
2021/04/22 09:55:29;;;;;;;1.73;0.70;;;15.20;51.40;;;;;;5108003;27;20215;-67
2021/04/22 09:57:57;;;;;;;0.77;0.70;;;14.70;52.10;;;;;;5106965;28;20305;-66
2021/04/22 10:00:28;;;;;;;2.23;0.97;;;14.40;52.40;;;;;;5104594;27;20598;-66
2021/04/22 10:02:56;;;;;;;1.33;0.75;;;14.10;53.00;;;;;;5104283;27;20425;-67
2021/04/22 10:05:25;;;;;;;0.80;0.70;;;13.90;53.80;;;;;;5109886;27;20244;-68
2021/04/22 10:08:04;;;;;;;1.20;0.80;;;14.00;54.40;;;;;;5106848;27;20189;-68
2021/04/22 10:10:31;;;;;;;1.93;1.03;;;14.10;54.40;;;;;;5108679;27;20308;-68
2021/04/22 10:13:03;;;;;;;1.50;0.90;;;14.40;54.60;;;;;;5109816;27;20189;-68
2021/04/22 10:15:31;;;;;;;1.17;0.77;;;14.60;54.20;;;;;;5104116;28;20226;-68
2021/04/22 10:17:59;;;;;;;0.70;0.70;;;14.70;53.90;;;;;;5111798;27;20192;-68
2021/04/22 10:20:30;;;;;;;1.92;0.80;;;14.60;53.90;;;;;;5107177;27;20427;-67
2021/04/22 10:22:57;;;;;;;1.60;0.90;;;14.50;54.70;;;;;;5106161;28;20216;-67
2021/04/22 10:25:27;;;;;;;0.93;0.70;;;14.30;54.90;;;;;;5104528;28;20302;-67
2021/04/22 10:27:54;;;;;;;1.10;0.70;;;14.00;54.80;;;;;;5104685;27;20490;-67
2021/04/22 10:30:25;;;;;;;0.93;0.77;;;13.90;55.40;;;;;;5106682;28;20285;-67
2021/04/22 10:32:53;;;;;;;2.70;0.80;;;13.80;55.60;;;;;;5105397;27;20229;-68
2021/04/22 10:35:22;;;;;;;3.30;0.70;;;13.80;55.80;;;;;;5106015;28;20244;-68
2021/04/22 10:37:53;;;;;;;2.40;1.00;;;13.70;56.00;;;;;;5105232;27;20196;-68
2021/04/22 10:40:23;;;;;;;1.13;0.87;;;13.60;55.90;;;;;;5107321;27;20216;-67
2021/04/22 10:42:53;;;;;;;3.13;0.93;;;13.60;56.30;;;;;;5104597;28;20672;-66
2021/04/22 10:45:21;;;;;;;2.33;0.80;;;13.40;56.40;;;;;;5105462;27;20196;-67
2021/04/22 10:47:48;;;;;;;1.10;0.70;;;13.30;56.70;;;;;;5108384;27;20205;-67
2021/04/22 10:50:17;;;;;;;1.47;0.70;;;13.10;56.90;;;;;;5106190;28;20211;-67
2021/04/22 10:52:46;;;;;;;1.13;0.80;;;12.80;57.20;;;;;;5106430;27;20203;-68
2021/04/22 10:55:17;;;;;;;2.30;0.80;;;12.70;57.80;;;;;;5103736;28;20778;-67
2021/04/22 10:57:46;;;;;;;0.97;0.87;;;12.60;58.50;;;;;;5104721;27;20205;-68
2021/04/22 11:00:17;;;;;;;1.70;1.20;;;12.70;59.30;;;;;;5104363;28;20192;-68
2021/04/22 11:02:47;;;;;;;2.27;1.00;;;12.80;59.70;;;;;;5105589;28;20607;-67
2021/04/22 11:05:23;;;;;;;0.87;0.70;;;12.80;59.80;;;;;;5106249;28;20406;-69
2021/04/22 11:07:59;;;;;;;3.03;1.00;;;12.80;60.20;;;;;;5105051;28;20213;-68
2021/04/22 11:10:34;;;;;;;1.50;1.03;;;12.80;60.10;;;;;;5104898;28;20191;-67
2021/04/22 11:13:14;;;;;;;2.00;0.87;;;12.70;60.10;;;;;;5102930;28;20577;-67
2021/04/22 11:15:45;;;;;;;1.33;0.83;;;12.60;60.30;;;;;;5100064;28;20635;-67
2021/04/22 11:18:13;;;;;;;1.87;1.10;;;12.50;60.70;;;;;;5104741;28;20198;-67
2021/04/22 11:20:42;;;;;;;1.23;0.80;;;12.50;61.60;;;;;;5106105;28;20547;-67
2021/04/22 11:23:13;;;;;;;2.13;1.20;;;12.40;62.20;;;;;;5106428;28;20207;-67
2021/04/22 11:25:48;;;;;;;1.87;1.10;;;12.30;63.10;;;;;;5105191;28;20275;-67
2021/04/22 11:28:16;;;;;;;3.03;1.30;;;12.30;63.90;;;;;;5104204;28;20490;-67
2021/04/22 11:30:44;;;;;;;1.47;0.80;;;12.20;64.70;;;;;;5104433;28;20194;-68
2021/04/22 11:33:12;;;;;;;2.30;1.17;;;12.10;65.50;;;;;;5108536;27;20414;-68
2021/04/22 11:35:39;;;;;;;1.30;1.00;;;11.90;66.40;;;;;;5110140;27;20574;-67
2021/04/22 11:38:08;;;;;;;3.17;1.27;;;11.80;67.50;;;;;;5122014;27;20195;-67
2021/04/22 11:40:39;;;;;;;61.17;10.60;;;11.60;68.90;;;;;;5107841;27;20253;-67
2021/04/22 11:43:05;;;;;;;22.55;5.85;;;11.50;70.30;;;;;;5111261;27;20465;-67
2021/04/22 11:45:34;;;;;;;9.60;2.07;;;11.40;73.80;;;;;;5107679;28;20197;-67
2021/04/22 11:48:03;;;;;;;2.87;1.37;;;11.30;75.30;;;;;;5110165;27;20192;-67
2021/04/22 11:50:40;;;;;;;1.20;1.03;;;11.20;77.00;;;;;;5103563;27;20247;-67
2021/04/22 11:53:07;;;;;;;5.10;1.40;;;11.30;78.70;;;;;;5110254;27;20229;-67
2021/04/22 11:55:35;;;;;;;1.60;1.20;;;11.60;80.50;;;;;;5108201;28;20216;-67
2021/04/22 11:58:09;;;;;;;16.00;4.20;;;11.70;80.80;;;;;;5107516;28;21006;-67
2021/04/22 12:00:40;;;;;;;6.17;1.83;;;11.80;80.60;;;;;;5106476;27;20203;-67
2021/04/22 12:03:08;;;;;;;2.70;1.33;;;11.70;80.90;;;;;;5108783;27;20201;-67
2021/04/22 12:05:36;;;;;;;1.27;1.03;;;11.60;82.10;;;;;;5109140;28;20189;-67
2021/04/22 12:08:05;;;;;;;1.83;1.03;;;11.50;82.50;;;;;;5108589;27;20208;-67
2021/04/22 12:10:34;;;;;;;1.30;0.97;;;11.50;82.70;;;;;;5107544;27;20196;-67
2021/04/22 12:13:06;;;;;;;1.13;1.00;;;11.50;84.10;;;;;;5108884;27;20285;-67
2021/04/22 12:15:36;;;;;;;2.57;1.30;;;11.50;84.30;;;;;;5105253;27;20299;-67
2021/04/22 12:18:04;;;;;;;2.03;1.17;;;11.70;84.60;;;;;;5108009;28;20201;-67
2021/04/22 12:20:31;;;;;;;1.27;0.77;;;11.80;83.80;;;;;;5109579;27;20209;-67
2021/04/22 12:22:58;;;;;;;2.63;1.07;;;11.90;82.80;;;;;;5107408;27;20196;-67
2021/04/22 12:25:26;;;;;;;1.73;0.73;;;11.80;82.00;;;;;;5111623;27;20258;-67
2021/04/22 12:27:56;;;;;;;0.80;0.80;;;11.80;81.60;;;;;;5106422;27;20222;-68
2021/04/22 12:30:32;;;;;;;1.40;0.70;;;11.80;81.30;;;;;;5107353;27;20218;-67
2021/04/22 12:33:05;;;;;;;0.90;0.70;;;11.80;81.40;;;;;;5109001;27;20234;-67
2021/04/22 12:35:34;;;;;;;0.80;0.77;;;11.70;81.20;;;;;;5106892;27;20223;-68
2021/04/22 12:38:17;;;;;;;1.17;0.80;;;11.50;81.30;;;;;;5107895;27;20434;-68
2021/04/22 12:40:46;;;;;;;1.43;0.80;;;11.40;83.30;;;;;;5107270;27;20646;-67
2021/04/22 12:43:13;;;;;;;1.23;0.67;;;11.30;83.50;;;;;;5106637;27;20304;-68
2021/04/22 12:45:40;;;;;;;15.17;5.93;;;11.20;83.70;;;;;;5105491;27;20187;-68
2021/04/22 12:48:09;;;;;;;11.87;3.47;;;11.10;84.30;;;;;;5106688;27;20199;-68
2021/04/22 12:50:40;;;;;;;45.77;5.30;;;11.00;85.20;;;;;;5108904;27;20675;-68
2021/04/22 12:53:11;;;;;;;21.47;2.67;;;10.80;85.90;;;;;;5107153;27;20210;-67